sensor_id;sensor_type;location;lat;lon;timestamp;pressure;altitude;pressure_sealevel;temperature;humidity
47883;BME280;37739;50.350;7.578;2023-03-31T00:01:49;98907.28;;;11.67;83.17
47883;BME280;37739;50.350;7.578;2023-03-31T00:04:18;98896.91;;;11.62;83.49
47883;BME280;37739;50.350;7.578;2023-03-31T00:06:52;98884.81;;;11.56;83.75
47883;BME280;37739;50.350;7.578;2023-03-31T00:09:21;98885.66;;;11.54;85.00
47883;BME280;37739;50.350;7.578;2023-03-31T00:11:50;98873.63;;;11.51;84.10
47883;BME280;37739;50.350;7.578;2023-03-31T00:14:17;98860.66;;;11.47;85.79
47883;BME280;37739;50.350;7.578;2023-03-31T00:16:43;98857.19;;;11.42;85.38
47883;BME280;37739;50.350;7.578;2023-03-31T00:19:10;98858.06;;;11.44;86.15
47883;BME280;37739;50.350;7.578;2023-03-31T00:21:43;98855.41;;;11.39;85.93
47883;BME280;37739;50.350;7.578;2023-03-31T00:24:09;98846.06;;;11.43;85.28
47883;BME280;37739;50.350;7.578;2023-03-31T00:26:38;98836.63;;;11.42;84.87
47883;BME280;37739;50.350;7.578;2023-03-31T00:29:05;98835.63;;;11.35;85.74
47883;BME280;37739;50.350;7.578;2023-03-31T00:31:31;98839.00;;;11.31;85.95
47883;BME280;37739;50.350;7.578;2023-03-31T00:33:57;98825.34;;;11.33;86.27
47883;BME280;37739;50.350;7.578;2023-03-31T00:36:23;98826.16;;;11.31;85.99
47883;BME280;37739;50.350;7.578;2023-03-31T00:39:04;98819.31;;;11.30;87.08
47883;BME280;37739;50.350;7.578;2023-03-31T00:41:34;98809.06;;;11.33;86.48
47883;BME280;37739;50.350;7.578;2023-03-31T00:44:15;98815.13;;;11.36;86.46
47883;BME280;37739;50.350;7.578;2023-03-31T00:49:25;98813.38;;;11.34;85.55
47883;BME280;37739;50.350;7.578;2023-03-31T00:51:54;98811.59;;;11.30;85.37
47883;BME280;37739;50.350;7.578;2023-03-31T00:54:22;98806.38;;;11.25;86.13
47883;BME280;37739;50.350;7.578;2023-03-31T00:56:54;98808.00;;;11.22;86.14
47883;BME280;37739;50.350;7.578;2023-03-31T00:59:26;98803.72;;;11.20;87.14
47883;BME280;37739;50.350;7.578;2023-03-31T01:02:14;98805.41;;;11.20;87.25
47883;BME280;37739;50.350;7.578;2023-03-31T01:05:04;98789.09;;;11.16;88.17
47883;BME280;37739;50.350;7.578;2023-03-31T01:07:47;98791.59;;;11.13;87.96
47883;BME280;37739;50.350;7.578;2023-03-31T01:10:26;98787.31;;;11.14;86.83
47883;BME280;37739;50.350;7.578;2023-03-31T01:13:01;98781.41;;;11.16;86.83
47883;BME280;37739;50.350;7.578;2023-03-31T01:15:37;98769.31;;;11.12;87.81
47883;BME280;37739;50.350;7.578;2023-03-31T01:18:17;98760.75;;;11.12;88.12
47883;BME280;37739;50.350;7.578;2023-03-31T01:36:08;98728.25;;;11.11;88.13
47883;BME280;37739;50.350;7.578;2023-03-31T01:47:46;98686.38;;;11.13;86.77
47883;BME280;37739;50.350;7.578;2023-03-31T01:54:22;98685.44;;;11.10;86.83
47883;BME280;37739;50.350;7.578;2023-03-31T01:57:35;98684.66;;;11.14;86.44
47883;BME280;37739;50.350;7.578;2023-03-31T02:00:10;98684.59;;;11.09;86.16
47883;BME280;37739;50.350;7.578;2023-03-31T02:02:47;98685.34;;;11.04;86.38
47883;BME280;37739;50.350;7.578;2023-03-31T02:08:42;98676.03;;;11.10;86.08
47883;BME280;37739;50.350;7.578;2023-03-31T02:11:11;98676.91;;;11.12;86.05
47883;BME280;37739;50.350;7.578;2023-03-31T02:13:55;98667.56;;;11.14;86.04
47883;BME280;37739;50.350;7.578;2023-03-31T02:16:25;98661.56;;;11.14;85.92
47883;BME280;37739;50.350;7.578;2023-03-31T02:18:57;98661.56;;;11.14;86.15
47883;BME280;37739;50.350;7.578;2023-03-31T02:21:43;98641.91;;;11.16;86.21
47883;BME280;37739;50.350;7.578;2023-03-31T02:27:47;98629.94;;;11.18;86.25
47883;BME280;37739;50.350;7.578;2023-03-31T02:30:33;98620.56;;;11.18;85.79
47883;BME280;37739;50.350;7.578;2023-03-31T02:33:02;98610.31;;;11.20;85.21
47883;BME280;37739;50.350;7.578;2023-03-31T02:35:37;98603.47;;;11.19;85.47
47883;BME280;37739;50.350;7.578;2023-03-31T02:38:09;98593.13;;;11.14;86.12
47883;BME280;37739;50.350;7.578;2023-03-31T02:40:41;98568.22;;;11.09;86.03
47883;BME280;37739;50.350;7.578;2023-03-31T02:43:12;98558.81;;;11.09;86.35
47883;BME280;37739;50.350;7.578;2023-03-31T02:45:43;98546.00;;;11.12;86.23
47883;BME280;37739;50.350;7.578;2023-03-31T03:02:50;98507.63;;;11.20;85.13
47883;BME280;37739;50.350;7.578;2023-03-31T03:12:10;98490.38;;;11.10;84.75
47883;BME280;37739;50.350;7.578;2023-03-31T03:15:00;98486.97;;;11.09;84.61
47883;BME280;37739;50.350;7.578;2023-03-31T03:17:48;98486.06;;;11.07;84.00
47883;BME280;37739;50.350;7.578;2023-03-31T03:20:18;98490.38;;;11.10;84.23
47883;BME280;37739;50.350;7.578;2023-03-31T03:22:54;98492.13;;;11.12;83.81
47883;BME280;37739;50.350;7.578;2023-03-31T03:25:35;98469.03;;;11.11;83.91
47883;BME280;37739;50.350;7.578;2023-03-31T03:28:07;98454.44;;;11.10;83.76
47883;BME280;37739;50.350;7.578;2023-03-31T03:30:32;98445.06;;;11.12;83.62
47883;BME280;37739;50.350;7.578;2023-03-31T03:33:00;98431.31;;;11.08;84.28
47883;BME280;37739;50.350;7.578;2023-03-31T03:35:34;98442.47;;;11.09;84.74
47883;BME280;37739;50.350;7.578;2023-03-31T03:38:05;98455.22;;;11.04;85.10
47883;BME280;37739;50.350;7.578;2023-03-31T03:40:36;98457.72;;;10.98;85.66
47883;BME280;37739;50.350;7.578;2023-03-31T03:43:35;98452.53;;;10.93;85.60
47883;BME280;37739;50.350;7.578;2023-03-31T03:46:03;98448.22;;;10.92;85.19
47883;BME280;37739;50.350;7.578;2023-03-31T03:48:29;98449.09;;;10.91;84.79
47883;BME280;37739;50.350;7.578;2023-03-31T03:51:00;98444.84;;;10.93;85.40
47883;BME280;37739;50.350;7.578;2023-03-31T03:54:12;98435.44;;;10.94;85.28
47883;BME280;37739;50.350;7.578;2023-03-31T03:56:55;98428.56;;;10.93;85.13
47883;BME280;37739;50.350;7.578;2023-03-31T03:59:41;98432.00;;;10.95;84.87
47883;BME280;37739;50.350;7.578;2023-03-31T04:02:09;98431.22;;;10.99;84.45
47883;BME280;37739;50.350;7.578;2023-03-31T04:04:37;98424.31;;;10.96;84.15
47883;BME280;37739;50.350;7.578;2023-03-31T04:07:10;98420.06;;;10.95;83.81
47883;BME280;37739;50.350;7.578;2023-03-31T04:09:38;98414.91;;;10.97;83.54
47883;BME280;37739;50.350;7.578;2023-03-31T04:12:23;98409.78;;;10.97;83.27
47883;BME280;37739;50.350;7.578;2023-03-31T04:15:02;98406.41;;;10.98;83.21
47883;BME280;37739;50.350;7.578;2023-03-31T04:17:45;98394.38;;;10.94;82.82
47883;BME280;37739;50.350;7.578;2023-03-31T04:20:20;98392.66;;;10.94;83.20
47883;BME280;37739;50.350;7.578;2023-03-31T04:22:51;98397.78;;;10.94;83.55
47883;BME280;37739;50.350;7.578;2023-03-31T04:25:22;98399.47;;;10.92;83.30
47883;BME280;37739;50.350;7.578;2023-03-31T04:28:17;98391.75;;;10.91;84.21
47883;BME280;37739;50.350;7.578;2023-03-31T04:30:44;98388.28;;;10.87;84.21
47883;BME280;37739;50.350;7.578;2023-03-31T04:33:09;98382.16;;;10.77;83.96
47883;BME280;37739;50.350;7.578;2023-03-31T04:35:37;98365.91;;;10.77;84.31
47883;BME280;37739;50.350;7.578;2023-03-31T04:38:18;98359.00;;;10.71;84.58
47883;BME280;37739;50.350;7.578;2023-03-31T04:41:03;98350.47;;;10.74;84.75
47883;BME280;37739;50.350;7.578;2023-03-31T04:43:39;98341.13;;;10.76;85.28
47883;BME280;37739;50.350;7.578;2023-03-31T04:46:10;98344.53;;;10.76;85.32
47883;BME280;37739;50.350;7.578;2023-03-31T04:48:38;98341.13;;;10.77;85.94
47883;BME280;37739;50.350;7.578;2023-03-31T04:51:04;98333.44;;;10.76;86.12
47883;BME280;37739;50.350;7.578;2023-03-31T04:53:29;98324.81;;;10.71;85.89
47883;BME280;37739;50.350;7.578;2023-03-31T04:55:55;98341.06;;;10.71;86.09
47883;BME280;37739;50.350;7.578;2023-03-31T04:58:23;98340.94;;;10.64;87.08
47883;BME280;37739;50.350;7.578;2023-03-31T05:00:57;98336.66;;;10.61;87.26
47883;BME280;37739;50.350;7.578;2023-03-31T05:03:25;98338.34;;;10.62;87.26
47883;BME280;37739;50.350;7.578;2023-03-31T05:05:57;98334.09;;;10.61;87.82
47883;BME280;37739;50.350;7.578;2023-03-31T05:08:27;98328.06;;;10.57;87.42
47883;BME280;37739;50.350;7.578;2023-03-31T05:10:53;98338.31;;;10.57;88.23
47883;BME280;37739;50.350;7.578;2023-03-31T05:13:18;98331.41;;;10.53;87.92
47883;BME280;37739;50.350;7.578;2023-03-31T05:15:44;98338.28;;;10.56;88.24
47883;BME280;37739;50.350;7.578;2023-03-31T05:18:21;98339.13;;;10.53;89.16
47883;BME280;37739;50.350;7.578;2023-03-31T05:20:50;98333.06;;;10.50;89.50
47883;BME280;37739;50.350;7.578;2023-03-31T05:23:18;98327.03;;;10.43;89.24
47883;BME280;37739;50.350;7.578;2023-03-31T05:26:05;98325.25;;;10.40;89.94
47883;BME280;37739;50.350;7.578;2023-03-31T05:28:32;98313.28;;;10.39;90.66
47883;BME280;37739;50.350;7.578;2023-03-31T05:31:05;98316.69;;;10.38;90.63
47883;BME280;37739;50.350;7.578;2023-03-31T05:33:54;98303.03;;;10.39;90.90
47883;BME280;37739;50.350;7.578;2023-03-31T05:36:19;98303.03;;;10.41;90.97
47883;BME280;37739;50.350;7.578;2023-03-31T05:38:47;98293.66;;;10.41;91.01
47883;BME280;37739;50.350;7.578;2023-03-31T05:41:19;98286.81;;;10.42;91.63
47883;BME280;37739;50.350;7.578;2023-03-31T05:43:47;98270.56;;;10.40;90.46
47883;BME280;37739;50.350;7.578;2023-03-31T05:46:17;98265.41;;;10.38;92.18
47883;BME280;37739;50.350;7.578;2023-03-31T05:48:51;98267.97;;;10.38;92.57
47883;BME280;37739;50.350;7.578;2023-03-31T05:51:22;98256.84;;;10.36;92.42
47883;BME280;37739;50.350;7.578;2023-03-31T05:53:58;98260.22;;;10.34;93.80
47883;BME280;37739;50.350;7.578;2023-03-31T05:56:23;98259.34;;;10.33;92.79
47883;BME280;37739;50.350;7.578;2023-03-31T05:58:49;98249.09;;;10.33;93.62
47883;BME280;37739;50.350;7.578;2023-03-31T06:01:23;98240.59;;;10.34;93.96
47883;BME280;37739;50.350;7.578;2023-03-31T06:03:55;98229.44;;;10.32;93.87
47883;BME280;37739;50.350;7.578;2023-03-31T06:06:29;98220.88;;;10.30;94.04
47883;BME280;37739;50.350;7.578;2023-03-31T06:08:57;98219.16;;;10.31;92.83
47883;BME280;37739;50.350;7.578;2023-03-31T06:11:22;98213.09;;;10.24;94.30
47883;BME280;37739;50.350;7.578;2023-03-31T06:13:54;98208.78;;;10.20;94.48
47883;BME280;37739;50.350;7.578;2023-03-31T06:16:22;98210.44;;;10.19;94.27
47883;BME280;37739;50.350;7.578;2023-03-31T06:18:50;98184.78;;;10.15;94.71
47883;BME280;37739;50.350;7.578;2023-03-31T06:21:20;98187.28;;;10.12;95.40
47883;BME280;37739;50.350;7.578;2023-03-31T06:23:46;98176.13;;;10.08;95.74
47883;BME280;37739;50.350;7.578;2023-03-31T06:26:15;98148.75;;;10.04;95.45
47883;BME280;37739;50.350;7.578;2023-03-31T06:28:41;98126.50;;;10.00;95.20
47883;BME280;37739;50.350;7.578;2023-03-31T06:31:16;98136.72;;;9.98;96.31
47883;BME280;37739;50.350;7.578;2023-03-31T06:34:02;98151.28;;;10.01;96.34
47883;BME280;37739;50.350;7.578;2023-03-31T06:39:39;98144.41;;;9.97;96.48
47883;BME280;37739;50.350;7.578;2023-03-31T06:42:11;98135.91;;;9.99;96.31
47883;BME280;37739;50.350;7.578;2023-03-31T06:44:39;98136.75;;;10.00;96.37
47883;BME280;37739;50.350;7.578;2023-03-31T06:47:07;98131.66;;;10.01;95.57
47883;BME280;37739;50.350;7.578;2023-03-31T06:49:35;98121.41;;;10.01;95.29
47883;BME280;37739;50.350;7.578;2023-03-31T06:52:07;98124.91;;;10.07;95.16
47883;BME280;37739;50.350;7.578;2023-03-31T06:54:33;98122.34;;;10.07;95.85
47883;BME280;37739;50.350;7.578;2023-03-31T06:57:06;98120.63;;;10.10;95.57
47883;BME280;37739;50.350;7.578;2023-03-31T06:59:39;98118.97;;;10.11;95.99
47883;BME280;37739;50.350;7.578;2023-03-31T07:02:09;98112.13;;;10.11;95.45
47883;BME280;37739;50.350;7.578;2023-03-31T07:04:51;98116.41;;;10.11;95.39
47883;BME280;37739;50.350;7.578;2023-03-31T07:07:30;98116.44;;;10.15;95.16
47883;BME280;37739;50.350;7.578;2023-03-31T07:10:04;98111.38;;;10.21;94.95
47883;BME280;37739;50.350;7.578;2023-03-31T07:12:44;98117.44;;;10.27;95.03
47883;BME280;37739;50.350;7.578;2023-03-31T07:15:12;98097.78;;;10.27;94.17
47883;BME280;37739;50.350;7.578;2023-03-31T07:17:43;98096.09;;;10.29;94.19
47883;BME280;37739;50.350;7.578;2023-03-31T07:20:12;98095.22;;;10.29;94.05
47883;BME280;37739;50.350;7.578;2023-03-31T07:25:47;98084.19;;;10.31;93.48
47883;BME280;37739;50.350;7.578;2023-03-31T07:28:12;98077.34;;;10.30;93.16
47883;BME280;37739;50.350;7.578;2023-03-31T07:33:39;98078.28;;;10.38;93.78
47883;BME280;37739;50.350;7.578;2023-03-31T07:36:11;98073.16;;;10.40;93.49
47883;BME280;37739;50.350;7.578;2023-03-31T07:41:33;98084.34;;;10.48;93.59
47883;BME280;37739;50.350;7.578;2023-03-31T07:44:05;98082.69;;;10.53;93.82
47883;BME280;37739;50.350;7.578;2023-03-31T07:46:36;98084.41;;;10.53;93.93
47883;BME280;37739;50.350;7.578;2023-03-31T07:49:08;98075.88;;;10.55;93.35
47883;BME280;37739;50.350;7.578;2023-03-31T07:52:05;98081.03;;;10.57;93.44
47883;BME280;37739;50.350;7.578;2023-03-31T07:54:39;98072.47;;;10.56;92.91
47883;BME280;37739;50.350;7.578;2023-03-31T07:57:17;98070.75;;;10.55;92.96
47883;BME280;37739;50.350;7.578;2023-03-31T08:00:01;98069.94;;;10.59;93.06
47883;BME280;37739;50.350;7.578;2023-03-31T08:02:34;98078.53;;;10.63;93.15
47883;BME280;37739;50.350;7.578;2023-03-31T08:05:15;98086.31;;;10.72;92.89
47883;BME280;37739;50.350;7.578;2023-03-31T08:07:50;98088.88;;;10.75;92.62
47883;BME280;37739;50.350;7.578;2023-03-31T08:10:34;98083.84;;;10.86;91.74
47883;BME280;37739;50.350;7.578;2023-03-31T08:13:05;98079.66;;;11.00;91.58
47883;BME280;37739;50.350;7.578;2023-03-31T08:15:37;98081.44;;;11.06;91.28
47883;BME280;37739;50.350;7.578;2023-03-31T08:18:25;98074.66;;;11.14;91.06
47883;BME280;37739;50.350;7.578;2023-03-31T08:21:03;98079.81;;;11.17;90.58
47883;BME280;37739;50.350;7.578;2023-03-31T08:23:36;98068.69;;;11.20;89.72
47883;BME280;37739;50.350;7.578;2023-03-31T08:26:16;98073.91;;;11.32;90.87
47883;BME280;37739;50.350;7.578;2023-03-31T08:29:11;98069.66;;;11.39;90.21
47883;BME280;37739;50.350;7.578;2023-03-31T08:32:04;98072.19;;;11.31;89.95
47883;BME280;37739;50.350;7.578;2023-03-31T08:34:34;98058.53;;;11.38;90.51
47883;BME280;37739;50.350;7.578;2023-03-31T08:37:09;98058.56;;;11.42;89.96
47883;BME280;37739;50.350;7.578;2023-03-31T08:39:35;98063.69;;;11.40;90.08
47883;BME280;37739;50.350;7.578;2023-03-31T08:42:32;98058.50;;;11.35;91.10
47883;BME280;37739;50.350;7.578;2023-03-31T08:45:28;98061.97;;;11.36;91.94
47883;BME280;37739;50.350;7.578;2023-03-31T09:25:51;98036.25;;;11.30;93.22
47883;BME280;37739;50.350;7.578;2023-03-31T09:28:40;98026.81;;;11.24;93.71
47883;BME280;37739;50.350;7.578;2023-03-31T09:31:18;98031.84;;;11.12;93.99
47883;BME280;37739;50.350;7.578;2023-03-31T09:33:47;98021.56;;;11.07;95.11
47883;BME280;37739;50.350;7.578;2023-03-31T09:36:17;98016.44;;;11.07;94.75
47883;BME280;37739;50.350;7.578;2023-03-31T09:38:44;98009.53;;;10.98;95.14
47883;BME280;37739;50.350;7.578;2023-03-31T09:41:12;97991.59;;;11.00;94.53
47883;BME280;37739;50.350;7.578;2023-03-31T09:43:41;97998.44;;;11.04;94.06
47883;BME280;37739;50.350;7.578;2023-03-31T09:46:30;98003.59;;;11.07;93.52
47883;BME280;37739;50.350;7.578;2023-03-31T09:49:12;98001.88;;;11.02;91.76
47883;BME280;37739;50.350;7.578;2023-03-31T09:51:43;98002.81;;;11.19;91.95
47883;BME280;37739;50.350;7.578;2023-03-31T09:54:38;98002.00;;;11.25;91.68
47883;BME280;37739;50.350;7.578;2023-03-31T09:57:29;98010.50;;;11.19;91.02
47883;BME280;37739;50.350;7.578;2023-03-31T10:00:17;98007.94;;;11.17;90.98
47883;BME280;37739;50.350;7.578;2023-03-31T10:03:03;98001.91;;;11.12;91.39
47883;BME280;37739;50.350;7.578;2023-03-31T10:05:36;98008.75;;;11.09;92.21
47883;BME280;37739;50.350;7.578;2023-03-31T10:13:15;98008.63;;;10.92;94.35
47883;BME280;37739;50.350;7.578;2023-03-31T10:15:41;98009.47;;;10.88;93.98
47883;BME280;37739;50.350;7.578;2023-03-31T10:18:14;97969.84;;;10.50;92.18
47883;BME280;37739;50.350;7.578;2023-03-31T10:20:50;97976.59;;;10.36;92.43
47883;BME280;37739;50.350;7.578;2023-03-31T10:23:23;97980.13;;;10.52;92.85
47883;BME280;37739;50.350;7.578;2023-03-31T10:25:53;97980.31;;;10.76;93.41
47883;BME280;37739;50.350;7.578;2023-03-31T10:28:23;97977.06;;;11.08;93.60
47883;BME280;37739;50.350;7.578;2023-03-31T10:30:57;97973.84;;;11.46;93.96
47883;BME280;37739;50.350;7.578;2023-03-31T10:33:26;97967.09;;;11.77;93.82
47883;BME280;37739;50.350;7.578;2023-03-31T10:35:57;97961.13;;;11.85;91.62
47883;BME280;37739;50.350;7.578;2023-03-31T10:38:32;97952.56;;;11.87;93.13
47883;BME280;37739;50.350;7.578;2023-03-31T10:40:59;97955.13;;;11.81;92.62
47883;BME280;37739;50.350;7.578;2023-03-31T10:43:32;97948.28;;;11.80;94.03
47883;BME280;37739;50.350;7.578;2023-03-31T10:46:03;97955.16;;;11.86;93.80
47883;BME280;37739;50.350;7.578;2023-03-31T10:51:05;97967.13;;;11.76;94.60
47883;BME280;37739;50.350;7.578;2023-03-31T10:56:49;97978.22;;;11.73;93.72
47883;BME280;37739;50.350;7.578;2023-03-31T11:05:48;97958.31;;;11.15;91.63
47883;BME280;37739;50.350;7.578;2023-03-31T11:08:32;97961.63;;;10.91;92.23
47883;BME280;37739;50.350;7.578;2023-03-31T11:16:47;97950.34;;;10.69;91.87
47883;BME280;37739;50.350;7.578;2023-03-31T11:35:14;97935.38;;;11.62;88.92
47883;BME280;37739;50.350;7.578;2023-03-31T11:43:35;97945.81;;;12.46;85.97
47883;BME280;37739;50.350;7.578;2023-03-31T11:48:57;97957.78;;;12.12;87.88
47883;BME280;37739;50.350;7.578;2023-03-31T11:51:27;97946.66;;;12.04;87.85
47883;BME280;37739;50.350;7.578;2023-03-31T11:53:57;97936.34;;;11.96;88.31
47883;BME280;37739;50.350;7.578;2023-03-31T11:56:35;97920.06;;;12.00;88.35
47883;BME280;37739;50.350;7.578;2023-03-31T11:59:03;97926.09;;;11.97;87.58
47883;BME280;37739;50.350;7.578;2023-03-31T12:06:32;97921.72;;;11.81;89.18
47883;BME280;37739;50.350;7.578;2023-03-31T12:17:10;97906.38;;;12.27;90.39
47883;BME280;37739;50.350;7.578;2023-03-31T12:19:43;97908.94;;;12.61;89.78
47883;BME280;37739;50.350;7.578;2023-03-31T12:24:41;97895.88;;;13.38;86.85
47883;BME280;37739;50.350;7.578;2023-03-31T12:32:40;97883.06;;;14.46;85.08
47883;BME280;37739;50.350;7.578;2023-03-31T12:38:19;97867.22;;;14.85;83.94
47883;BME280;37739;50.350;7.578;2023-03-31T12:46:45;97868.34;;;15.34;81.01
47883;BME280;37739;50.350;7.578;2023-03-31T12:49:25;97861.41;;;15.39;78.95
47883;BME280;37739;50.350;7.578;2023-03-31T12:59:36;97838.44;;;15.81;74.69
47883;BME280;37739;50.350;7.578;2023-03-31T13:04:42;97838.81;;;15.53;75.43
47883;BME280;37739;50.350;7.578;2023-03-31T13:09:58;97838.09;;;16.02;70.97
47883;BME280;37739;50.350;7.578;2023-03-31T13:13:04;97834.66;;;16.00;70.07
47883;BME280;37739;50.350;7.578;2023-03-31T13:15:31;97828.84;;;15.87;68.21
47883;BME280;37739;50.350;7.578;2023-03-31T13:18:01;97830.09;;;15.59;68.78
47883;BME280;37739;50.350;7.578;2023-03-31T13:20:38;97825.94;;;15.50;69.95
47883;BME280;37739;50.350;7.578;2023-03-31T13:23:19;97828.22;;;15.70;69.45
47883;BME280;37739;50.350;7.578;2023-03-31T13:25:50;97828.53;;;16.06;67.85
47883;BME280;37739;50.350;7.578;2023-03-31T13:30:54;97839.19;;;15.25;63.88
47883;BME280;37739;50.350;7.578;2023-03-31T13:36:37;97819.19;;;15.97;62.16
47883;BME280;37739;50.350;7.578;2023-03-31T13:45:47;97799.81;;;16.23;60.36
47883;BME280;37739;50.350;7.578;2023-03-31T13:50:49;97813.97;;;16.50;60.58
47883;BME280;37739;50.350;7.578;2023-03-31T14:04:36;97826.09;;;15.98;60.52
47883;BME280;37739;50.350;7.578;2023-03-31T14:07:17;97817.72;;;15.82;60.75
47883;BME280;37739;50.350;7.578;2023-03-31T14:09:53;97816.22;;;15.66;61.32
47883;BME280;37739;50.350;7.578;2023-03-31T14:14:57;97828.19;;;15.11;62.96
47883;BME280;37739;50.350;7.578;2023-03-31T14:17:26;97827.47;;;14.98;65.06
47883;BME280;37739;50.350;7.578;2023-03-31T14:33:33;97833.84;;;13.69;77.51
47883;BME280;37739;50.350;7.578;2023-03-31T14:38:47;97823.53;;;13.70;76.33
47883;BME280;37739;50.350;7.578;2023-03-31T14:41:20;97820.06;;;13.74;75.88
47883;BME280;37739;50.350;7.578;2023-03-31T14:43:54;97814.91;;;13.73;75.49
47883;BME280;37739;50.350;7.578;2023-03-31T14:46:23;97812.28;;;13.81;75.67
47883;BME280;37739;50.350;7.578;2023-03-31T14:48:52;97818.34;;;13.77;75.22
47883;BME280;37739;50.350;7.578;2023-03-31T14:51:26;97816.66;;;13.68;73.97
47883;BME280;37739;50.350;7.578;2023-03-31T14:53:59;97796.94;;;13.62;73.44
47883;BME280;37739;50.350;7.578;2023-03-31T14:56:37;97803.00;;;13.58;73.38
47883;BME280;37739;50.350;7.578;2023-03-31T14:59:06;97800.41;;;13.61;73.73
47883;BME280;37739;50.350;7.578;2023-03-31T15:01:33;97797.00;;;13.58;73.29
47883;BME280;37739;50.350;7.578;2023-03-31T15:04:09;97801.28;;;13.59;73.59
47883;BME280;37739;50.350;7.578;2023-03-31T15:06:35;97798.72;;;13.55;72.35
47883;BME280;37739;50.350;7.578;2023-03-31T15:09:04;97797.03;;;13.53;72.38
47883;BME280;37739;50.350;7.578;2023-03-31T15:11:33;97809.03;;;13.54;72.90
47883;BME280;37739;50.350;7.578;2023-03-31T15:14:01;97809.88;;;13.54;72.10
47883;BME280;37739;50.350;7.578;2023-03-31T15:16:43;97812.50;;;13.50;70.86
47883;BME280;37739;50.350;7.578;2023-03-31T15:19:18;97814.25;;;13.46;72.01
47883;BME280;37739;50.350;7.578;2023-03-31T15:21:46;97814.34;;;13.31;71.17
47883;BME280;37739;50.350;7.578;2023-03-31T15:24:18;97819.44;;;13.37;71.81
47883;BME280;37739;50.350;7.578;2023-03-31T15:29:16;97816.88;;;13.42;71.45
47883;BME280;37739;50.350;7.578;2023-03-31T15:31:45;97816.88;;;13.35;71.19
47883;BME280;37739;50.350;7.578;2023-03-31T15:34:29;97819.53;;;13.15;71.81
47883;BME280;37739;50.350;7.578;2023-03-31T15:36:59;97816.13;;;13.16;72.91
47883;BME280;37739;50.350;7.578;2023-03-31T15:39:30;97817.00;;;13.08;73.39
47883;BME280;37739;50.350;7.578;2023-03-31T15:41:59;97813.56;;;13.09;72.98
47883;BME280;37739;50.350;7.578;2023-03-31T15:47:27;97826.44;;;13.07;72.45
47883;BME280;37739;50.350;7.578;2023-03-31T15:52:29;97821.34;;;12.98;72.19
47883;BME280;37739;50.350;7.578;2023-03-31T15:54:57;97812.78;;;12.99;71.96
47883;BME280;37739;50.350;7.578;2023-03-31T15:57:31;97819.63;;;12.97;71.56
47883;BME280;37739;50.350;7.578;2023-03-31T15:59:57;97817.88;;;13.01;71.51
47883;BME280;37739;50.350;7.578;2023-03-31T16:02:26;97822.16;;;13.06;72.01
47883;BME280;37739;50.350;7.578;2023-03-31T16:04:58;97826.44;;;13.06;71.27
47883;BME280;37739;50.350;7.578;2023-03-31T16:07:27;97815.31;;;13.01;70.32
47883;BME280;37739;50.350;7.578;2023-03-31T16:10:14;97825.59;;;13.01;70.22
47883;BME280;37739;50.350;7.578;2023-03-31T16:12:49;97821.34;;;12.95;69.79
47883;BME280;37739;50.350;7.578;2023-03-31T16:15:20;97817.06;;;12.94;70.05
47883;BME280;37739;50.350;7.578;2023-03-31T16:17:52;97811.94;;;12.82;69.41
47883;BME280;37739;50.350;7.578;2023-03-31T16:20:33;97812.84;;;12.79;70.07
47883;BME280;37739;50.350;7.578;2023-03-31T16:23:13;97818.81;;;12.80;69.95
47883;BME280;37739;50.350;7.578;2023-03-31T16:25:39;97813.72;;;12.78;70.35
47883;BME280;37739;50.350;7.578;2023-03-31T16:28:06;97814.53;;;12.83;70.29
47883;BME280;37739;50.350;7.578;2023-03-31T16:30:37;97816.22;;;12.90;70.25
47883;BME280;37739;50.350;7.578;2023-03-31T16:33:17;97811.09;;;12.86;69.66
47883;BME280;37739;50.350;7.578;2023-03-31T16:35:51;97818.00;;;12.76;69.53
47883;BME280;37739;50.350;7.578;2023-03-31T16:38:21;97816.25;;;12.84;70.09
47883;BME280;37739;50.350;7.578;2023-03-31T16:40:51;97829.09;;;12.90;70.03
47883;BME280;37739;50.350;7.578;2023-03-31T16:43:25;97821.38;;;12.87;69.36
47883;BME280;37739;50.350;7.578;2023-03-31T16:45:58;97824.81;;;12.86;69.38
47883;BME280;37739;50.350;7.578;2023-03-31T16:48:29;97832.50;;;12.92;69.93
47883;BME280;37739;50.350;7.578;2023-03-31T16:50:56;97826.53;;;12.93;69.67
47883;BME280;37739;50.350;7.578;2023-03-31T16:53:24;97824.81;;;12.88;69.49
47883;BME280;37739;50.350;7.578;2023-03-31T16:55:53;97829.13;;;12.83;69.77
47883;BME280;37739;50.350;7.578;2023-03-31T16:58:19;97837.69;;;12.86;70.07
47883;BME280;37739;50.350;7.578;2023-03-31T17:00:48;97824.84;;;12.80;69.78
47883;BME280;37739;50.350;7.578;2023-03-31T17:03:16;97825.72;;;12.76;70.06
47883;BME280;37739;50.350;7.578;2023-03-31T17:05:45;97838.59;;;12.65;70.07
47883;BME280;37739;50.350;7.578;2023-03-31T17:08:15;97836.03;;;12.65;70.67
47883;BME280;37739;50.350;7.578;2023-03-31T17:10:48;97845.47;;;12.63;71.12
47883;BME280;37739;50.350;7.578;2023-03-31T17:13:14;97842.91;;;12.58;71.44
47883;BME280;37739;50.350;7.578;2023-03-31T17:15:40;97838.63;;;12.59;71.11
47883;BME280;37739;50.350;7.578;2023-03-31T17:18:05;97847.22;;;12.52;71.83
47883;BME280;37739;50.350;7.578;2023-03-31T17:20:31;97837.78;;;12.46;72.39
47883;BME280;37739;50.350;7.578;2023-03-31T17:22:57;97837.78;;;12.48;73.08
47883;BME280;37739;50.350;7.578;2023-03-31T17:25:22;97842.94;;;12.46;73.40
47883;BME280;37739;50.350;7.578;2023-03-31T17:27:50;97852.38;;;12.46;73.13
47883;BME280;37739;50.350;7.578;2023-03-31T17:30:22;97870.38;;;12.38;72.87
47883;BME280;37739;50.350;7.578;2023-03-31T17:32:47;97861.81;;;12.41;73.19
47883;BME280;37739;50.350;7.578;2023-03-31T17:35:13;97870.38;;;12.41;73.22
47883;BME280;37739;50.350;7.578;2023-03-31T17:37:47;97877.25;;;12.33;73.11
47883;BME280;37739;50.350;7.578;2023-03-31T17:40:15;97860.97;;;12.34;72.85
47883;BME280;37739;50.350;7.578;2023-03-31T17:42:41;97857.53;;;12.29;72.92
47883;BME280;37739;50.350;7.578;2023-03-31T17:45:09;97846.41;;;12.25;72.50